createdAt,value
2019-03-17T00:01:22.728Z,8.90
2019-03-17T00:03:26.363Z,8.90
2019-03-17T00:05:29.300Z,8.90
2019-03-17T00:07:32.922Z,8.90
2019-03-17T00:09:35.725Z,8.90
2019-03-17T00:11:39.285Z,8.90
2019-03-17T00:13:42.066Z,9.00
2019-03-17T00:15:45.811Z,8.90
2019-03-17T00:17:49.425Z,8.90
2019-03-17T00:19:52.215Z,8.90
2019-03-17T00:21:55.853Z,8.90
2019-03-17T00:23:58.625Z,9.00
2019-03-17T00:26:02.186Z,9.00
2019-03-17T00:28:05.034Z,9.00
2019-03-17T00:30:11.344Z,9.00
2019-03-17T00:32:14.912Z,9.00
2019-03-17T00:34:17.699Z,9.00
2019-03-17T00:36:21.337Z,9.00
2019-03-17T00:38:24.146Z,9.00
2019-03-17T00:40:27.727Z,9.00
2019-03-17T00:42:30.526Z,9.00
2019-03-17T00:44:34.136Z,9.10
2019-03-17T00:46:36.984Z,9.10
2019-03-17T00:48:40.560Z,9.10
2019-03-17T00:50:43.421Z,9.10
2019-03-17T00:52:46.987Z,9.10
2019-03-17T00:54:49.795Z,9.20
2019-03-17T00:56:53.355Z,9.20
2019-03-17T00:58:56.175Z,9.20
2019-03-17T01:00:59.749Z,9.20
2019-03-17T01:03:02.588Z,9.10
2019-03-17T01:05:06.580Z,9.10
2019-03-17T01:07:10.156Z,9.10
2019-03-17T01:09:12.938Z,9.10
2019-03-17T01:11:16.497Z,9.10
2019-03-17T01:13:19.362Z,9.20
2019-03-17T01:15:22.995Z,9.20
2019-03-17T01:17:25.775Z,9.20
2019-03-17T01:19:29.384Z,9.20
2019-03-17T01:21:32.135Z,9.20
2019-03-17T01:23:35.746Z,9.20
2019-03-17T01:25:38.519Z,9.20
2019-03-17T01:27:42.343Z,9.20
2019-03-17T01:29:45.837Z,9.30
2019-03-17T01:31:48.614Z,9.30
2019-03-17T01:33:52.218Z,9.30
2019-03-17T01:35:54.991Z,9.40
2019-03-17T01:37:58.651Z,9.40
2019-03-17T01:40:02.219Z,9.40
2019-03-17T01:42:05.062Z,9.30
2019-03-17T01:44:08.639Z,9.30
2019-03-17T01:46:11.419Z,9.30
2019-03-17T01:48:15.005Z,9.20
2019-03-17T01:50:17.792Z,9.30
2019-03-17T01:52:21.343Z,9.30
2019-03-17T01:54:24.134Z,9.30
2019-03-17T01:56:27.696Z,9.30
2019-03-17T01:58:30.511Z,9.20
2019-03-17T02:00:34.306Z,9.20
2019-03-17T02:02:37.899Z,9.20
2019-03-17T02:04:40.687Z,9.10
2019-03-17T02:06:44.396Z,9.00
2019-03-17T02:08:47.971Z,9.00
2019-03-17T02:10:50.759Z,8.90
2019-03-17T02:12:54.367Z,8.90
2019-03-17T02:14:57.151Z,8.90
2019-03-17T02:17:00.721Z,8.90
2019-03-17T02:19:03.570Z,8.90
2019-03-17T02:21:07.200Z,8.90
2019-03-17T02:23:10.055Z,8.90
2019-03-17T02:25:13.576Z,8.90
2019-03-17T02:27:16.356Z,8.90
2019-03-17T02:29:19.922Z,8.90
2019-03-17T02:31:22.711Z,8.80
2019-03-17T02:33:26.297Z,8.80
2019-03-17T02:35:38.895Z,8.80
2019-03-17T02:37:34.401Z,8.70
2019-03-17T02:39:37.296Z,8.70
2019-03-17T02:41:40.873Z,8.60
2019-03-17T02:43:43.690Z,8.60
2019-03-17T02:45:47.273Z,8.60
2019-03-17T02:47:50.073Z,8.60
2019-03-17T02:49:53.743Z,8.70
2019-03-17T02:51:57.302Z,8.70
2019-03-17T02:54:00.145Z,8.70
2019-03-17T02:56:03.744Z,8.60
2019-03-17T02:58:07.344Z,8.60
2019-03-17T03:00:10.605Z,8.70
2019-03-17T03:02:14.236Z,8.70
2019-03-17T03:04:17.008Z,8.70
2019-03-17T03:06:20.604Z,8.70
2019-03-17T03:08:23.382Z,8.70
2019-03-17T03:10:27.029Z,8.70
2019-03-17T03:12:30.614Z,8.60
2019-03-17T03:14:33.467Z,8.60
2019-03-17T03:16:37.331Z,8.60
2019-03-17T03:18:40.910Z,8.50
2019-03-17T03:20:43.689Z,8.50
2019-03-17T03:22:47.366Z,8.40
2019-03-17T03:24:50.934Z,8.40
2019-03-17T03:26:53.759Z,8.30
2019-03-17T03:28:57.331Z,8.30
2019-03-17T03:31:00.139Z,8.40
2019-03-17T03:33:03.882Z,8.30
2019-03-17T03:35:09.158Z,8.30
2019-03-17T03:37:12.720Z,8.30
2019-03-17T03:39:15.528Z,8.20
2019-03-17T03:41:19.082Z,8.30
2019-03-17T03:43:21.905Z,8.20
2019-03-17T03:45:25.516Z,8.20
2019-03-17T03:47:28.302Z,8.20
2019-03-17T03:49:31.865Z,8.20
2019-03-17T03:51:34.679Z,8.10
2019-03-17T03:53:38.254Z,8.10
2019-03-17T03:55:42.425Z,8.00
2019-03-17T03:57:45.396Z,8.00
2019-03-17T03:59:49.129Z,8.00
2019-03-17T04:01:52.849Z,8.00
2019-03-17T04:03:56.492Z,8.00
2019-03-17T04:06:00.075Z,8.00
2019-03-17T04:08:02.895Z,7.90
2019-03-17T04:10:08.694Z,7.90
2019-03-17T04:12:12.279Z,7.90
2019-03-17T04:14:15.069Z,7.90
2019-03-17T04:16:18.643Z,7.80
2019-03-17T04:18:21.441Z,7.80
2019-03-17T04:20:25.038Z,7.70
2019-03-17T04:22:27.938Z,7.70
2019-03-17T04:24:31.560Z,7.60
2019-03-17T04:26:34.427Z,7.60
2019-03-17T04:28:37.973Z,7.60
2019-03-17T04:30:40.889Z,7.50
2019-03-17T04:32:44.450Z,7.40
2019-03-17T04:34:47.266Z,7.40
2019-03-17T04:36:50.862Z,7.40
2019-03-17T04:38:53.642Z,7.30
2019-03-17T04:40:57.205Z,7.30
2019-03-17T04:43:00.017Z,7.30
2019-03-17T04:45:03.817Z,7.20
2019-03-17T04:47:07.519Z,7.20
2019-03-17T04:49:11.076Z,7.20
2019-03-17T04:51:13.879Z,7.20
2019-03-17T04:53:17.488Z,7.20
2019-03-17T04:55:20.272Z,7.20
2019-03-17T04:57:23.924Z,7.20
2019-03-17T04:59:27.565Z,7.20
2019-03-17T05:01:31.156Z,7.20
2019-03-17T05:03:33.944Z,7.10
2019-03-17T05:05:37.519Z,7.10
2019-03-17T05:07:40.327Z,7.00
2019-03-17T05:09:43.988Z,7.00
2019-03-17T05:11:47.592Z,7.00
2019-03-17T05:13:50.327Z,6.90
2019-03-17T05:15:53.982Z,7.00
2019-03-17T05:17:57.577Z,6.90
2019-03-17T05:20:00.363Z,6.90
2019-03-17T05:22:04.011Z,6.80
2019-03-17T05:24:07.610Z,6.70
2019-03-17T05:26:10.386Z,6.70
2019-03-17T05:28:13.961Z,6.70
2019-03-17T05:30:16.756Z,6.70
2019-03-17T05:32:20.408Z,6.70
2019-03-17T05:34:24.005Z,6.60
2019-03-17T05:36:26.799Z,6.60
2019-03-17T05:38:30.359Z,6.60
2019-03-17T05:40:33.175Z,6.60
2019-03-17T05:42:36.738Z,6.70
2019-03-17T05:44:39.611Z,6.80
2019-03-17T05:46:43.254Z,6.80
2019-03-17T05:48:46.862Z,6.90
2019-03-17T05:50:49.652Z,7.00
2019-03-17T05:52:53.239Z,7.00
2019-03-17T05:54:56.034Z,7.10
2019-03-17T05:56:59.613Z,7.10
2019-03-17T05:59:02.507Z,7.20
2019-03-17T06:01:06.112Z,7.20
2019-03-17T06:03:08.888Z,7.30
2019-03-17T06:05:12.547Z,7.30
2019-03-17T06:07:19.011Z,7.30
2019-03-17T06:09:21.378Z,7.30
2019-03-17T06:11:24.188Z,7.40
2019-03-17T06:13:27.749Z,7.40
2019-03-17T06:15:30.554Z,7.50
2019-03-17T06:17:34.107Z,7.50
2019-03-17T06:19:36.904Z,7.50
2019-03-17T06:21:42.731Z,7.50
2019-03-17T06:23:46.378Z,7.60
2019-03-17T06:25:50.008Z,7.60
2019-03-17T06:27:53.571Z,7.60
2019-03-17T06:29:56.372Z,7.50
2019-03-17T06:32:00.005Z,7.50
2019-03-17T06:34:03.611Z,7.50
2019-03-17T06:36:06.436Z,7.60
2019-03-17T06:38:10.021Z,7.60
2019-03-17T06:40:13.195Z,7.60
2019-03-17T06:42:16.772Z,7.60
2019-03-17T06:44:19.570Z,7.60
2019-03-17T06:46:23.182Z,7.60
2019-03-17T06:48:25.960Z,7.60
2019-03-17T06:50:29.531Z,7.60
2019-03-17T06:52:32.334Z,7.70
2019-03-17T06:54:35.900Z,7.80
2019-03-17T06:56:38.694Z,7.80
2019-03-17T06:58:42.358Z,7.90
2019-03-17T07:00:45.460Z,8.00
2019-03-17T07:02:49.112Z,8.00
2019-03-17T07:04:54.109Z,8.10
2019-03-17T07:06:57.852Z,8.10
2019-03-17T07:09:00.674Z,8.20
2019-03-17T07:11:04.305Z,8.20
2019-03-17T07:13:07.081Z,8.30
2019-03-17T07:15:13.627Z,8.40
2019-03-17T07:17:19.339Z,8.50
2019-03-17T07:19:22.422Z,8.60
2019-03-17T07:21:25.205Z,8.70
2019-03-17T07:23:28.804Z,8.80
2019-03-17T07:25:31.614Z,8.90
2019-03-17T07:27:35.208Z,9.00
2019-03-17T07:29:37.983Z,9.20
2019-03-17T07:31:41.547Z,9.30
2019-03-17T07:33:44.900Z,9.40
2019-03-17T07:35:48.515Z,9.50
2019-03-17T07:37:57.012Z,9.50
2019-03-17T07:39:57.394Z,9.60
2019-03-17T07:42:00.258Z,9.70
2019-03-17T07:44:03.887Z,9.70
2019-03-17T07:46:06.704Z,9.80
2019-03-17T07:48:10.335Z,9.80
2019-03-17T07:50:13.292Z,9.80
2019-03-17T07:52:16.225Z,9.90
2019-03-17T07:54:18.996Z,9.90
2019-03-17T07:56:21.882Z,10.00
2019-03-17T07:58:24.676Z,10.10
2019-03-17T08:00:32.157Z,10.10
2019-03-17T08:02:31.958Z,10.30
2019-03-17T08:04:42.470Z,10.40
2019-03-17T08:06:39.287Z,10.50
2019-03-17T08:08:42.245Z,10.60
2019-03-17T08:10:45.215Z,10.90
2019-03-17T08:12:48.055Z,10.90
2019-03-17T08:14:50.860Z,11.00
2019-03-17T08:16:53.644Z,11.10
2019-03-17T08:18:56.502Z,11.10
2019-03-17T08:20:59.316Z,11.10
2019-03-17T08:23:02.118Z,11.20
2019-03-17T08:25:06.682Z,11.20
2019-03-17T08:27:10.225Z,11.40
2019-03-17T08:29:13.048Z,11.50
2019-03-17T08:31:15.938Z,11.50
2019-03-17T08:33:18.718Z,11.70
2019-03-17T08:35:21.540Z,11.70
2019-03-17T08:37:24.323Z,11.80
2019-03-17T08:39:27.113Z,11.90
2019-03-17T08:41:29.895Z,11.90
2019-03-17T08:43:32.704Z,12.00
2019-03-17T08:45:35.506Z,12.10
2019-03-17T08:47:38.302Z,12.10
2019-03-17T08:49:41.122Z,12.30
2019-03-17T08:51:43.912Z,12.40
2019-03-17T08:53:46.692Z,12.50
2019-03-17T08:55:49.517Z,12.70
2019-03-17T08:57:52.279Z,12.80
2019-03-17T08:59:55.110Z,12.90
2019-03-17T09:01:57.913Z,12.90
2019-03-17T09:04:00.693Z,13.10
2019-03-17T09:06:03.668Z,13.10
2019-03-17T09:08:06.486Z,13.10
2019-03-17T09:10:12.765Z,13.20
2019-03-17T09:12:15.586Z,13.30
2019-03-17T09:14:18.413Z,13.30
2019-03-17T09:16:21.268Z,13.40
2019-03-17T09:18:26.832Z,13.50
2019-03-17T09:20:28.688Z,13.70
2019-03-17T09:22:31.498Z,13.80
2019-03-17T09:24:34.305Z,13.80
2019-03-17T09:26:37.085Z,13.70
2019-03-17T09:28:39.888Z,13.80
2019-03-17T09:30:42.703Z,14.00
2019-03-17T09:32:45.483Z,14.10
2019-03-17T09:34:48.272Z,14.20
2019-03-17T09:36:51.083Z,14.30
2019-03-17T09:38:53.883Z,14.40
2019-03-17T09:40:56.706Z,14.30
2019-03-17T09:42:59.510Z,14.50
2019-03-17T09:45:02.288Z,14.70
2019-03-17T09:47:05.175Z,14.70
2019-03-17T09:49:08.042Z,14.80
2019-03-17T09:51:10.831Z,14.90
2019-03-17T09:53:13.607Z,14.80
2019-03-17T09:55:16.461Z,14.90
2019-03-17T09:57:19.240Z,15.10
2019-03-17T09:59:22.056Z,15.30
2019-03-17T10:01:24.848Z,15.30
2019-03-17T10:03:27.630Z,15.40
2019-03-17T10:05:30.448Z,15.40
2019-03-17T10:07:33.235Z,15.40
2019-03-17T10:09:36.037Z,15.40
2019-03-17T10:11:38.839Z,15.50
2019-03-17T10:13:41.708Z,15.50
2019-03-17T10:15:44.503Z,15.60
2019-03-17T10:17:47.354Z,15.60
2019-03-17T10:19:50.137Z,15.70
2019-03-17T10:21:52.940Z,15.80
2019-03-17T10:23:55.723Z,15.80
2019-03-17T10:25:58.534Z,15.90
2019-03-17T10:28:01.342Z,15.90
2019-03-17T10:30:05.675Z,16.10
2019-03-17T10:32:08.475Z,16.20
2019-03-17T10:34:11.258Z,16.30
2019-03-17T10:36:14.125Z,16.40
2019-03-17T10:38:16.980Z,16.30
2019-03-17T10:40:21.346Z,16.20
2019-03-17T10:42:24.125Z,16.20
2019-03-17T10:44:26.916Z,16.10
2019-03-17T10:46:29.710Z,16.10
2019-03-17T10:48:32.580Z,16.10
2019-03-17T10:50:35.358Z,16.20
2019-03-17T10:52:38.199Z,16.30
2019-03-17T10:54:40.996Z,16.40
2019-03-17T10:56:43.843Z,16.60
2019-03-17T10:58:46.659Z,16.80
2019-03-17T11:00:49.537Z,17.00
2019-03-17T11:02:52.428Z,17.20
2019-03-17T11:04:55.241Z,17.30
2019-03-17T11:06:58.027Z,17.20
2019-03-17T11:09:00.835Z,17.40
2019-03-17T11:11:03.687Z,17.30
2019-03-17T11:13:06.497Z,17.40
2019-03-17T11:15:13.511Z,17.60
2019-03-17T11:17:16.447Z,17.70
2019-03-17T11:19:19.308Z,17.90
2019-03-17T11:21:22.080Z,17.90
2019-03-17T11:23:25.091Z,17.90
2019-03-17T11:25:27.876Z,17.90
2019-03-17T11:27:30.665Z,17.90
2019-03-17T11:29:33.459Z,17.90
2019-03-17T11:31:36.359Z,18.00
2019-03-17T11:33:39.154Z,18.10
2019-03-17T11:35:41.971Z,18.10
2019-03-17T11:37:44.765Z,18.30
2019-03-17T11:39:47.548Z,18.40
2019-03-17T11:41:50.345Z,18.40
2019-03-17T11:43:53.152Z,18.40
2019-03-17T11:45:55.959Z,18.40
2019-03-17T11:47:58.858Z,18.50
2019-03-17T11:50:01.672Z,18.60
2019-03-17T11:52:04.554Z,18.70
2019-03-17T11:54:07.440Z,18.70
2019-03-17T11:56:10.226Z,18.70
2019-03-17T11:58:13.037Z,18.70
2019-03-17T12:00:16.498Z,18.70
2019-03-17T12:02:26.581Z,18.50
2019-03-17T12:04:25.526Z,18.50
2019-03-17T12:06:28.321Z,18.50
2019-03-17T12:08:31.141Z,18.50
2019-03-17T12:10:33.970Z,18.60
2019-03-17T12:12:36.743Z,18.70
2019-03-17T12:14:39.631Z,18.80
2019-03-17T12:16:42.496Z,18.80
2019-03-17T12:18:45.325Z,18.80
2019-03-17T12:20:48.194Z,18.70
2019-03-17T12:22:51.069Z,18.70
2019-03-17T12:24:53.856Z,18.80
2019-03-17T12:26:56.667Z,19.00
2019-03-17T12:28:59.481Z,19.00
2019-03-17T12:31:02.320Z,19.00
2019-03-17T12:33:05.195Z,19.00
2019-03-17T12:35:08.044Z,19.10
2019-03-17T12:37:10.935Z,19.20
2019-03-17T12:39:13.739Z,19.20
2019-03-17T12:41:16.519Z,19.40
2019-03-17T12:43:19.433Z,19.40
2019-03-17T12:45:22.288Z,19.30
2019-03-17T12:47:25.093Z,19.20
2019-03-17T12:49:27.913Z,19.20
2019-03-17T12:51:30.686Z,19.30
2019-03-17T12:53:33.495Z,19.30
2019-03-17T12:55:36.286Z,19.30
2019-03-17T12:57:39.144Z,19.30
2019-03-17T12:59:41.956Z,19.20
2019-03-17T13:01:44.743Z,19.30
2019-03-17T13:03:48.875Z,19.40
2019-03-17T13:05:51.903Z,19.40
2019-03-17T13:07:54.865Z,19.50
2019-03-17T13:09:57.701Z,19.40
2019-03-17T13:12:00.483Z,19.40
2019-03-17T13:14:03.359Z,19.40
2019-03-17T13:16:06.172Z,19.30
2019-03-17T13:18:08.994Z,19.20
2019-03-17T13:20:12.694Z,19.20
2019-03-17T13:22:15.473Z,19.20
2019-03-17T13:24:18.456Z,19.20
2019-03-17T13:26:21.231Z,19.40
2019-03-17T13:28:27.021Z,19.40
2019-03-17T13:30:29.840Z,19.50
2019-03-17T13:32:32.621Z,19.50
2019-03-17T13:34:35.416Z,19.50
2019-03-17T13:36:38.327Z,19.50
2019-03-17T13:38:41.174Z,19.60
2019-03-17T13:40:43.996Z,19.60
2019-03-17T13:42:46.773Z,19.70
2019-03-17T13:44:49.611Z,19.60
2019-03-17T13:46:52.393Z,19.70
2019-03-17T13:48:55.173Z,19.70
2019-03-17T13:50:57.975Z,19.80
2019-03-17T13:53:00.788Z,19.80
2019-03-17T13:55:03.940Z,19.90
2019-03-17T13:57:06.728Z,19.90
2019-03-17T13:59:10.009Z,19.80
2019-03-17T14:01:12.810Z,19.70
2019-03-17T14:03:15.627Z,19.80
2019-03-17T14:05:18.419Z,19.80
2019-03-17T14:07:21.225Z,19.70
2019-03-17T14:09:24.031Z,19.70
2019-03-17T14:11:26.815Z,19.70
2019-03-17T14:13:29.635Z,19.70
2019-03-17T14:15:32.490Z,19.90
2019-03-17T14:17:35.273Z,19.90
2019-03-17T14:19:38.127Z,19.90
2019-03-17T14:21:41.013Z,19.80
2019-03-17T14:23:43.865Z,19.80
2019-03-17T14:25:47.110Z,19.90
2019-03-17T14:27:50.079Z,19.90
2019-03-17T14:29:52.925Z,19.90
2019-03-17T14:31:55.866Z,19.90
2019-03-17T14:33:58.672Z,19.90
2019-03-17T14:36:01.609Z,20.00
2019-03-17T14:38:05.038Z,19.90
2019-03-17T14:40:09.340Z,20.00
2019-03-17T14:42:12.115Z,19.90
2019-03-17T14:44:15.071Z,20.00
2019-03-17T14:46:17.925Z,20.00
2019-03-17T14:48:20.746Z,20.10
2019-03-17T14:50:23.896Z,20.30
2019-03-17T14:52:26.909Z,20.50
2019-03-17T14:54:29.972Z,20.50
2019-03-17T14:56:32.790Z,20.30
2019-03-17T14:58:35.600Z,20.40
2019-03-17T15:00:38.511Z,20.40
2019-03-17T15:02:41.476Z,20.50
2019-03-17T15:04:44.294Z,20.40
2019-03-17T15:06:47.085Z,20.40
2019-03-17T15:08:50.016Z,20.40
2019-03-17T15:11:04.953Z,20.20
2019-03-17T15:12:57.660Z,20.10
2019-03-17T15:15:00.412Z,20.20
2019-03-17T15:17:03.290Z,20.10
2019-03-17T15:19:06.205Z,20.20
2019-03-17T15:21:08.971Z,20.00
2019-03-17T15:23:11.859Z,20.00
2019-03-17T15:25:14.747Z,20.10
2019-03-17T15:27:17.521Z,20.20
2019-03-17T15:29:20.316Z,20.30
2019-03-17T15:31:23.129Z,20.10
2019-03-17T15:33:25.921Z,20.20
2019-03-17T15:35:28.830Z,20.20
2019-03-17T15:37:31.675Z,20.10
2019-03-17T15:39:34.548Z,19.90
2019-03-17T15:41:37.371Z,19.90
2019-03-17T15:43:40.145Z,19.80
2019-03-17T15:45:42.930Z,19.80
2019-03-17T15:47:45.808Z,19.60
2019-03-17T15:49:49.477Z,19.40
2019-03-17T15:51:52.298Z,19.50
2019-03-17T15:53:55.084Z,19.50
2019-03-17T15:55:57.998Z,19.50
2019-03-17T15:58:01.138Z,19.40
2019-03-17T16:00:05.714Z,19.20
2019-03-17T16:02:08.427Z,19.20
2019-03-17T16:04:11.357Z,19.00
2019-03-17T16:06:14.122Z,18.80
2019-03-17T16:08:16.912Z,18.70
2019-03-17T16:10:21.237Z,18.50
2019-03-17T16:12:24.056Z,18.50
2019-03-17T16:14:26.846Z,18.40
2019-03-17T16:16:29.703Z,18.30
2019-03-17T16:18:32.487Z,18.10
2019-03-17T16:20:35.281Z,18.00
2019-03-17T16:22:38.098Z,18.00
2019-03-17T16:24:40.955Z,17.80
2019-03-17T16:26:43.743Z,17.70
2019-03-17T16:28:46.640Z,17.70
2019-03-17T16:30:49.428Z,17.60
2019-03-17T16:32:52.280Z,17.70
2019-03-17T16:34:55.063Z,17.70
2019-03-17T16:36:57.842Z,17.80
2019-03-17T16:39:00.660Z,17.70
2019-03-17T16:41:03.526Z,17.70
2019-03-17T16:43:06.390Z,17.60
2019-03-17T16:45:15.601Z,17.50
2019-03-17T16:47:18.122Z,17.50
2019-03-17T16:49:20.912Z,17.40
2019-03-17T16:51:23.710Z,17.30
2019-03-17T16:53:26.568Z,17.40
2019-03-17T16:55:29.390Z,17.30
2019-03-17T16:57:32.180Z,17.50
2019-03-17T16:59:35.001Z,17.50
2019-03-17T17:01:37.856Z,17.50
2019-03-17T17:03:40.663Z,17.50
2019-03-17T17:05:43.443Z,17.40
2019-03-17T17:07:47.076Z,17.30
2019-03-17T17:09:49.922Z,17.20
2019-03-17T17:11:57.212Z,17.20
2019-03-17T17:13:57.166Z,17.20
2019-03-17T17:15:59.979Z,17.10
2019-03-17T17:18:02.904Z,17.00
2019-03-17T17:20:07.211Z,16.90
2019-03-17T17:22:10.082Z,17.00
2019-03-17T17:24:12.923Z,17.00
2019-03-17T17:26:15.715Z,16.90
2019-03-17T17:28:18.509Z,16.90
2019-03-17T17:30:21.527Z,16.80
2019-03-17T17:32:24.313Z,16.80
2019-03-17T17:34:27.102Z,16.80
2019-03-17T17:36:29.926Z,16.80
2019-03-17T17:38:32.718Z,16.80
2019-03-17T17:40:35.507Z,16.70
2019-03-17T17:42:38.316Z,16.50
2019-03-17T17:44:41.129Z,16.50
2019-03-17T17:46:43.920Z,16.30
2019-03-17T17:48:46.743Z,16.30
2019-03-17T17:50:49.523Z,16.20
2019-03-17T17:52:52.376Z,16.10
2019-03-17T17:54:55.260Z,16.10
2019-03-17T17:56:58.087Z,16.00
2019-03-17T17:59:00.905Z,16.00
2019-03-17T18:01:03.776Z,16.00
2019-03-17T18:03:06.656Z,15.90
2019-03-17T18:05:09.519Z,15.80
2019-03-17T18:07:12.295Z,15.80
2019-03-17T18:09:15.106Z,15.90
2019-03-17T18:11:17.893Z,15.90
2019-03-17T18:13:20.703Z,15.90
2019-03-17T18:15:25.049Z,16.00
2019-03-17T18:17:27.843Z,16.10
2019-03-17T18:19:30.643Z,16.10
2019-03-17T18:21:33.426Z,16.30
2019-03-17T18:23:36.261Z,16.30
2019-03-17T18:25:39.031Z,16.30
2019-03-17T18:27:41.892Z,16.30
2019-03-17T18:29:44.713Z,16.20
2019-03-17T18:31:47.493Z,16.20
2019-03-17T18:33:50.325Z,16.10
2019-03-17T18:35:53.129Z,16.10
2019-03-17T18:37:56.004Z,16.20
2019-03-17T18:39:58.814Z,15.90
2019-03-17T18:42:01.608Z,15.00
2019-03-17T18:44:04.591Z,14.30
2019-03-17T18:46:07.477Z,13.80
2019-03-17T18:48:10.286Z,13.30
2019-03-17T18:50:20.065Z,12.80
2019-03-17T18:52:18.502Z,12.40
2019-03-17T18:54:21.349Z,12.10
2019-03-17T18:56:24.158Z,11.80
2019-03-17T18:58:26.938Z,11.60
2019-03-17T19:00:29.747Z,11.40
2019-03-17T19:02:32.544Z,11.10
2019-03-17T19:04:35.330Z,10.90
2019-03-17T19:06:39.202Z,10.80
2019-03-17T19:08:41.989Z,10.50
2019-03-17T19:10:44.820Z,10.20
2019-03-17T19:12:47.886Z,10.10
2019-03-17T19:14:50.673Z,10.00
2019-03-17T19:16:53.471Z,9.90
2019-03-17T19:18:56.253Z,9.80
2019-03-17T19:20:59.064Z,9.70
2019-03-17T19:23:01.839Z,9.80
2019-03-17T19:25:06.394Z,9.70
2019-03-17T19:27:09.275Z,9.60
2019-03-17T19:29:12.078Z,9.50
2019-03-17T19:31:14.975Z,9.40
2019-03-17T19:33:17.731Z,9.30
2019-03-17T19:35:20.614Z,9.30
2019-03-17T19:37:23.435Z,9.20
2019-03-17T19:39:26.321Z,9.20
2019-03-17T19:41:29.141Z,9.20
2019-03-17T19:43:31.945Z,9.10
2019-03-17T19:45:34.756Z,9.10
2019-03-17T19:47:37.636Z,9.00
2019-03-17T19:49:40.427Z,9.00
2019-03-17T19:51:43.242Z,9.00
2019-03-17T19:53:46.074Z,9.10
2019-03-17T19:55:48.875Z,9.00
2019-03-17T19:57:51.663Z,9.00
2019-03-17T19:59:54.493Z,9.00
2019-03-17T20:01:57.311Z,9.00
2019-03-17T20:04:00.106Z,9.00
2019-03-17T20:06:02.971Z,8.90
2019-03-17T20:08:05.827Z,8.90
2019-03-17T20:10:10.114Z,8.90
2019-03-17T20:12:12.932Z,8.90
2019-03-17T20:14:15.789Z,8.90
2019-03-17T20:16:18.731Z,8.90
2019-03-17T20:18:21.493Z,8.80
2019-03-17T20:20:24.364Z,8.90
2019-03-17T20:22:27.187Z,8.90
2019-03-17T20:24:29.971Z,8.90
2019-03-17T20:26:32.744Z,8.80
2019-03-17T20:28:35.558Z,8.90
2019-03-17T20:30:38.364Z,8.80
2019-03-17T20:32:41.211Z,8.80
2019-03-17T20:34:44.003Z,8.70
2019-03-17T20:36:46.938Z,8.70
2019-03-17T20:38:49.726Z,8.70
2019-03-17T20:40:52.500Z,8.70
2019-03-17T20:42:55.291Z,8.70
2019-03-17T20:44:58.078Z,8.70
2019-03-17T20:47:00.890Z,8.70
2019-03-17T20:49:03.672Z,8.70
2019-03-17T20:51:06.491Z,8.60
2019-03-17T20:53:09.281Z,8.70
2019-03-17T20:55:12.132Z,8.70
2019-03-17T20:57:14.956Z,8.70
2019-03-17T20:59:17.753Z,8.70
2019-03-17T21:01:20.525Z,8.60
2019-03-17T21:03:23.320Z,8.60
2019-03-17T21:05:26.101Z,8.50
2019-03-17T21:07:28.972Z,8.50
2019-03-17T21:09:31.796Z,8.50
2019-03-17T21:11:34.566Z,8.40
2019-03-17T21:13:46.226Z,8.40
2019-03-17T21:15:44.920Z,8.30
2019-03-17T21:17:47.770Z,8.30
2019-03-17T21:19:50.591Z,8.30
2019-03-17T21:21:53.380Z,8.20
2019-03-17T21:23:56.208Z,8.20
2019-03-17T21:25:58.983Z,8.10
2019-03-17T21:28:01.738Z,8.00
2019-03-17T21:30:06.054Z,8.00
2019-03-17T21:32:08.866Z,8.00
2019-03-17T21:34:11.651Z,8.00
2019-03-17T21:36:14.427Z,7.90
2019-03-17T21:38:17.232Z,7.90
2019-03-17T21:40:20.093Z,8.00
2019-03-17T21:42:22.958Z,8.00
2019-03-17T21:44:25.813Z,8.00
2019-03-17T21:46:28.605Z,7.90
2019-03-17T21:48:31.444Z,7.90
2019-03-17T21:50:34.235Z,7.80
2019-03-17T21:52:37.015Z,7.80
2019-03-17T21:54:39.824Z,7.70
2019-03-17T21:56:42.669Z,7.70
2019-03-17T21:58:45.424Z,7.70
2019-03-17T22:00:48.279Z,7.70
2019-03-17T22:02:51.083Z,7.70
2019-03-17T22:04:53.861Z,7.70
2019-03-17T22:06:56.850Z,7.70
2019-03-17T22:08:59.949Z,7.60
2019-03-17T22:11:02.804Z,7.60
2019-03-17T22:13:05.621Z,7.60
2019-03-17T22:15:12.177Z,7.60
2019-03-17T22:17:14.987Z,7.60
2019-03-17T22:19:17.747Z,7.70
2019-03-17T22:21:20.559Z,7.60
2019-03-17T22:23:23.407Z,7.60
2019-03-17T22:25:26.190Z,7.70
2019-03-17T22:27:28.995Z,7.60
2019-03-17T22:29:31.783Z,7.60
2019-03-17T22:31:34.560Z,7.70
2019-03-17T22:33:37.378Z,7.70
2019-03-17T22:35:40.148Z,7.70
2019-03-17T22:37:42.956Z,7.60
2019-03-17T22:39:45.727Z,7.60
2019-03-17T22:41:48.455Z,7.50
2019-03-17T22:43:51.256Z,7.50
2019-03-17T22:45:54.080Z,7.50
2019-03-17T22:47:56.848Z,7.50
2019-03-17T22:49:59.651Z,7.50
2019-03-17T22:52:02.469Z,7.50
2019-03-17T22:54:05.261Z,7.50
2019-03-17T22:56:08.031Z,7.50
2019-03-17T22:58:10.847Z,7.60
2019-03-17T23:00:19.185Z,7.60
2019-03-17T23:02:22.062Z,7.60
2019-03-17T23:04:24.839Z,7.60
2019-03-17T23:06:27.687Z,7.50
2019-03-17T23:08:30.491Z,7.50
2019-03-17T23:10:33.273Z,7.40
2019-03-17T23:12:36.504Z,7.40
2019-03-17T23:14:39.276Z,7.40
2019-03-17T23:16:42.083Z,7.40
2019-03-17T23:18:44.894Z,7.50
2019-03-17T23:20:47.666Z,7.50
2019-03-17T23:22:50.455Z,7.40
2019-03-17T23:24:53.263Z,7.40
2019-03-17T23:26:56.051Z,7.40
2019-03-17T23:28:58.819Z,7.40
2019-03-17T23:31:01.605Z,7.40
2019-03-17T23:33:04.476Z,7.40
2019-03-17T23:35:07.430Z,7.50
2019-03-17T23:37:10.243Z,7.50
2019-03-17T23:39:13.123Z,7.50
2019-03-17T23:41:15.900Z,7.50
2019-03-17T23:43:18.711Z,7.40
2019-03-17T23:45:21.490Z,7.40
2019-03-17T23:47:24.267Z,7.50
2019-03-17T23:49:27.070Z,7.50
2019-03-17T23:51:29.851Z,7.60
2019-03-17T23:53:32.687Z,7.50
2019-03-17T23:55:35.474Z,7.40
2019-03-17T23:57:38.270Z,7.40
2019-03-17T23:59:41.069Z,7.40
